createdAt,value
2018-07-25T00:00:49.227Z,6.87
2018-07-25T00:05:53.960Z,6.63
2018-07-25T00:10:58.728Z,6.83
2018-07-25T00:16:03.658Z,6.73
2018-07-25T00:21:08.768Z,6.80
2018-07-25T00:26:13.621Z,6.07
2018-07-25T00:31:18.414Z,6.93
2018-07-25T00:36:23.143Z,6.40
2018-07-25T00:41:27.913Z,6.83
2018-07-25T00:46:32.668Z,8.43
2018-07-25T00:51:37.388Z,7.33
2018-07-25T00:56:42.155Z,6.90
2018-07-25T01:01:46.908Z,6.30
2018-07-25T01:06:51.608Z,5.90
2018-07-25T01:11:56.483Z,6.57
2018-07-25T01:17:01.261Z,6.53
2018-07-25T01:22:05.997Z,7.13
2018-07-25T01:27:10.772Z,7.27
2018-07-25T01:32:15.462Z,7.17
2018-07-25T01:37:20.142Z,7.40
2018-07-25T01:42:24.920Z,7.80
2018-07-25T01:47:29.609Z,7.53
2018-07-25T01:52:34.410Z,7.70
2018-07-25T01:57:39.526Z,7.57
2018-07-25T02:02:44.282Z,7.30
2018-07-25T02:07:48.963Z,7.63
2018-07-25T02:12:53.619Z,7.43
2018-07-25T02:17:58.219Z,8.17
2018-07-25T02:23:03.025Z,7.70
2018-07-25T02:28:07.552Z,9.13
2018-07-25T02:33:12.568Z,7.00
2018-07-25T02:38:17.249Z,8.27
2018-07-25T02:43:21.981Z,7.23
2018-07-25T02:48:26.703Z,8.00
2018-07-25T02:53:31.459Z,11.00
2018-07-25T02:58:36.151Z,7.90
2018-07-25T03:03:41.035Z,8.53
2018-07-25T03:08:45.903Z,8.00
2018-07-25T03:13:50.565Z,8.73
2018-07-25T03:18:55.271Z,7.70
2018-07-25T03:23:59.983Z,8.10
2018-07-25T03:29:04.726Z,9.30
2018-07-25T03:34:09.435Z,11.07
2018-07-25T03:39:14.249Z,12.47
2018-07-25T03:44:19.023Z,12.57
2018-07-25T03:49:23.483Z,10.17
2018-07-25T03:54:29.575Z,10.97
2018-07-25T03:59:34.258Z,10.23
2018-07-25T04:04:38.879Z,11.10
2018-07-25T04:09:43.530Z,9.27
2018-07-25T04:14:48.210Z,9.70
2018-07-25T04:19:52.944Z,8.93
2018-07-25T04:24:57.759Z,9.07
2018-07-25T04:30:02.534Z,9.37
2018-07-25T04:35:08.133Z,8.33
2018-07-25T04:40:12.857Z,9.77
2018-07-25T04:45:17.508Z,8.50
2018-07-25T04:50:22.409Z,8.60
2018-07-25T04:55:27.060Z,8.13
2018-07-25T05:00:31.850Z,8.60
2018-07-25T05:05:36.553Z,8.07
2018-07-25T05:10:41.260Z,7.80
2018-07-25T05:15:46.041Z,11.13
2018-07-25T05:20:50.773Z,7.80
2018-07-25T05:25:55.827Z,7.97
2018-07-25T05:31:00.740Z,7.80
2018-07-25T05:36:05.528Z,7.30
2018-07-25T05:41:10.348Z,7.73
2018-07-25T05:46:15.347Z,6.67
2018-07-25T05:51:20.156Z,7.00
2018-07-25T05:56:24.864Z,6.30
2018-07-25T06:01:29.666Z,6.90
2018-07-25T06:06:34.364Z,8.30
2018-07-25T06:11:39.800Z,7.60
2018-07-25T06:16:44.473Z,7.80
2018-07-25T06:21:49.231Z,9.13
2018-07-25T06:26:53.985Z,7.50
2018-07-25T06:31:58.786Z,7.10
2018-07-25T06:37:03.625Z,10.20
2018-07-25T06:42:08.936Z,7.30
2018-07-25T06:47:13.766Z,9.27
2018-07-25T06:52:18.446Z,9.87
2018-07-25T06:57:23.189Z,11.40
2018-07-25T07:02:28.108Z,7.97
2018-07-25T07:07:32.808Z,7.60
2018-07-25T07:12:37.577Z,7.50
2018-07-25T07:17:42.876Z,7.97
2018-07-25T07:22:47.591Z,6.30
2018-07-25T07:27:52.986Z,6.97
2018-07-25T07:32:57.717Z,8.40
2018-07-25T07:38:02.485Z,4.50
2018-07-25T07:43:07.256Z,5.83
2018-07-25T07:48:12.051Z,4.67
2018-07-25T07:53:16.828Z,5.53
2018-07-25T07:58:21.621Z,5.27
2018-07-25T08:03:26.457Z,7.50
2018-07-25T08:08:31.292Z,9.40
2018-07-25T08:13:35.966Z,5.87
2018-07-25T08:18:40.840Z,5.60
2018-07-25T08:23:45.489Z,5.27
2018-07-25T08:28:50.199Z,6.33
2018-07-25T08:33:54.932Z,5.83
2018-07-25T08:38:59.685Z,7.43
2018-07-25T08:44:05.667Z,7.63
2018-07-25T08:49:10.423Z,6.27
2018-07-25T08:54:15.173Z,6.43
2018-07-25T08:59:20.041Z,4.13
2018-07-25T09:04:24.773Z,4.00
2018-07-25T09:09:29.443Z,4.47
2018-07-25T09:14:34.348Z,6.03
2018-07-25T09:19:39.099Z,4.70
2018-07-25T09:24:43.964Z,7.87
2018-07-25T09:29:48.661Z,6.80
2018-07-25T09:34:53.354Z,4.97
2018-07-25T09:39:58.198Z,9.23
2018-07-25T09:45:02.861Z,5.43
2018-07-25T09:50:08.844Z,4.53
2018-07-25T09:55:13.597Z,3.23
2018-07-25T10:00:24.394Z,4.50
2018-07-25T10:05:29.302Z,5.97
2018-07-25T10:10:34.101Z,9.93
2018-07-25T10:15:39.051Z,3.60
2018-07-25T10:20:43.913Z,3.70
2018-07-25T10:25:48.590Z,3.97
2018-07-25T10:30:53.288Z,2.63
2018-07-25T10:35:58.140Z,3.50
2018-07-25T10:41:03.000Z,5.37
2018-07-25T10:46:07.968Z,4.13
2018-07-25T10:51:12.821Z,3.60
2018-07-25T10:56:17.628Z,3.40
2018-07-25T11:01:22.353Z,2.80
2018-07-25T11:06:27.223Z,2.83
2018-07-25T11:11:31.988Z,5.97
2018-07-25T11:16:36.794Z,4.60
2018-07-25T11:21:41.498Z,2.83
2018-07-25T11:26:46.361Z,3.67
2018-07-25T11:31:51.217Z,2.73
2018-07-25T11:36:56.009Z,3.65
2018-07-25T11:42:00.724Z,5.03
2018-07-25T11:47:05.571Z,4.90
2018-07-25T11:52:10.386Z,5.30
2018-07-25T11:57:15.181Z,2.37
2018-07-25T12:02:20.112Z,3.17
2018-07-25T12:07:24.958Z,4.33
2018-07-25T12:12:29.741Z,3.65
2018-07-25T12:17:34.577Z,2.50
2018-07-25T12:22:39.345Z,4.03
2018-07-25T12:27:44.153Z,3.62
2018-07-25T12:32:48.885Z,2.98
2018-07-25T12:37:53.671Z,3.02
2018-07-25T12:42:58.467Z,2.58
2018-07-25T12:48:03.263Z,2.80
2018-07-25T12:53:08.150Z,5.35
2018-07-25T12:58:12.915Z,3.92
2018-07-25T13:03:18.545Z,3.95
2018-07-25T13:08:23.247Z,2.87
2018-07-25T13:13:27.932Z,3.00
2018-07-25T13:18:32.672Z,5.42
2018-07-25T13:23:37.645Z,3.13
2018-07-25T13:28:42.500Z,2.57
2018-07-25T13:33:47.221Z,2.90
2018-07-25T13:38:52.020Z,2.23
2018-07-25T13:43:56.822Z,3.63
2018-07-25T13:49:01.542Z,2.43
2018-07-25T13:54:06.692Z,3.97
2018-07-25T13:59:11.415Z,2.70
2018-07-25T14:04:26.154Z,10.17
2018-07-25T14:09:31.156Z,13.23
2018-07-25T14:14:36.308Z,5.17
2018-07-25T14:19:41.078Z,6.00
2018-07-25T14:24:45.922Z,11.73
2018-07-25T14:29:50.820Z,8.40
2018-07-25T14:34:55.995Z,12.00
2018-07-25T14:40:00.796Z,8.53
2018-07-25T14:45:05.752Z,4.53
2018-07-25T14:50:10.613Z,7.47
2018-07-25T14:55:15.364Z,5.80
2018-07-25T15:00:20.226Z,7.27
2018-07-25T15:05:24.952Z,7.13
2018-07-25T15:10:29.829Z,6.90
2018-07-25T15:15:34.680Z,5.60
2018-07-25T15:20:39.449Z,8.03
2018-07-25T15:25:44.235Z,6.27
2018-07-25T15:30:49.018Z,4.20
2018-07-25T15:35:53.789Z,5.20
2018-07-25T15:40:58.624Z,8.23
2018-07-25T15:46:03.483Z,7.60
2018-07-25T15:51:09.347Z,4.67
2018-07-25T15:56:14.176Z,5.77
2018-07-25T16:01:19.040Z,4.77
2018-07-25T16:06:24.206Z,3.93
2018-07-25T16:11:29.062Z,10.13
2018-07-25T16:16:33.851Z,3.97
2018-07-25T16:21:38.639Z,4.43
2018-07-25T16:26:43.580Z,6.43
2018-07-25T16:31:48.428Z,3.43
2018-07-25T16:36:53.165Z,3.20
2018-07-25T16:41:57.984Z,2.03
2018-07-25T16:47:02.750Z,2.40
2018-07-25T16:52:07.637Z,1.77
2018-07-25T16:57:12.429Z,4.20
2018-07-25T17:02:17.284Z,2.70
2018-07-25T17:07:22.123Z,2.80
2018-07-25T17:12:26.922Z,2.87
2018-07-25T17:17:31.754Z,3.12
2018-07-25T17:22:36.573Z,4.30
2018-07-25T17:27:41.431Z,5.30
2018-07-25T17:32:46.268Z,2.60
2018-07-25T17:37:51.074Z,4.75
2018-07-25T17:42:55.943Z,3.90
2018-07-25T17:48:00.765Z,2.90
2018-07-25T17:53:05.670Z,3.00
2018-07-25T17:58:10.413Z,4.67
2018-07-25T18:03:15.264Z,3.17
2018-07-25T18:08:20.047Z,5.17
2018-07-25T18:13:30.071Z,3.27
2018-07-25T18:18:34.800Z,3.87
2018-07-25T18:23:39.556Z,4.57
2018-07-25T18:28:44.348Z,3.73
2018-07-25T18:33:49.329Z,6.07
2018-07-25T18:38:54.096Z,3.00
2018-07-25T18:43:58.847Z,2.50
2018-07-25T18:49:03.845Z,2.70
2018-07-25T18:54:08.699Z,3.73
2018-07-25T18:59:13.312Z,3.37
2018-07-25T19:04:18.180Z,5.63
2018-07-25T19:09:22.972Z,3.83
2018-07-25T19:14:33.069Z,3.43
2018-07-25T19:19:38.078Z,8.37
2018-07-25T19:24:43.055Z,4.10
2018-07-25T19:29:47.915Z,4.87
2018-07-25T19:34:52.720Z,3.90
2018-07-25T19:39:57.456Z,3.10
2018-07-25T19:45:02.192Z,4.80
2018-07-25T19:50:07.147Z,4.87
2018-07-25T19:55:11.923Z,3.23
2018-07-25T20:00:17.099Z,5.47
2018-07-25T20:05:21.966Z,4.23
2018-07-25T20:10:27.182Z,3.63
2018-07-25T20:15:37.329Z,4.87
2018-07-25T20:20:43.606Z,3.10
2018-07-25T20:25:48.515Z,3.30
2018-07-25T20:30:58.555Z,5.10
2018-07-25T20:36:03.750Z,4.93
2018-07-25T20:41:08.725Z,3.77
2018-07-25T20:46:13.511Z,4.20
2018-07-25T20:51:18.362Z,5.60
2018-07-25T20:56:23.358Z,5.93
2018-07-25T21:01:28.463Z,2.60
2018-07-25T21:06:32.963Z,4.03
2018-07-25T21:11:38.027Z,5.33
2018-07-25T21:16:42.715Z,4.47
2018-07-25T21:21:47.673Z,3.53
2018-07-25T21:26:52.494Z,4.30
2018-07-25T21:31:57.377Z,4.27
2018-07-25T21:37:02.147Z,8.10
2018-07-25T21:42:07.021Z,3.10
2018-07-25T21:47:12.225Z,3.37
2018-07-25T21:52:16.622Z,4.83
2018-07-25T21:57:21.368Z,6.23
2018-07-25T22:02:26.086Z,4.73
2018-07-25T22:07:30.879Z,3.27
2018-07-25T22:12:35.676Z,5.70
2018-07-25T22:17:40.434Z,3.50
2018-07-25T22:22:45.172Z,4.67
2018-07-25T22:27:49.973Z,4.07
2018-07-25T22:32:54.734Z,6.93
2018-07-25T22:37:59.475Z,4.00
2018-07-25T22:43:04.370Z,4.43
2018-07-25T22:48:09.526Z,7.93
2018-07-25T22:53:14.235Z,7.43
2018-07-25T22:58:19.007Z,3.50
2018-07-25T23:03:23.661Z,5.63
2018-07-25T23:08:28.418Z,4.57
2018-07-25T23:13:33.096Z,6.23
2018-07-25T23:18:37.876Z,5.00
2018-07-25T23:23:42.647Z,3.57
2018-07-25T23:28:47.474Z,5.63
2018-07-25T23:33:52.170Z,4.10
2018-07-25T23:38:57.913Z,4.97
2018-07-25T23:44:02.570Z,3.43
2018-07-25T23:49:07.327Z,5.10
2018-07-25T23:54:12.073Z,5.60
2018-07-25T23:59:16.833Z,5.07
